createdAt,value
2018-04-04T00:02:21.891Z,14.80
2018-04-04T00:04:50.321Z,14.90
2018-04-04T00:07:18.695Z,14.80
2018-04-04T00:09:47.522Z,14.70
2018-04-04T00:12:16.235Z,14.70
2018-04-04T00:14:44.618Z,14.70
2018-04-04T00:17:13.020Z,14.60
2018-04-04T00:19:42.957Z,14.50
2018-04-04T00:22:11.603Z,14.40
2018-04-04T00:24:39.990Z,14.40
2018-04-04T00:27:09.137Z,14.20
2018-04-04T00:29:37.554Z,14.20
2018-04-04T00:32:05.944Z,14.20
2018-04-04T00:34:35.112Z,14.20
2018-04-04T00:37:03.505Z,14.20
2018-04-04T00:39:32.146Z,14.10
2018-04-04T00:42:00.526Z,14.10
2018-04-04T00:44:28.930Z,14.20
2018-04-04T00:46:57.335Z,14.20
2018-04-04T00:49:26.495Z,14.00
2018-04-04T00:51:54.922Z,14.00
2018-04-04T00:54:24.070Z,13.90
2018-04-04T00:56:52.517Z,13.90
2018-04-04T00:59:20.900Z,13.90
2018-04-04T01:01:49.285Z,13.90
2018-04-04T01:04:17.683Z,13.80
2018-04-04T01:06:46.110Z,13.80
2018-04-04T01:09:14.515Z,13.80
2018-04-04T01:11:42.900Z,13.80
2018-04-04T01:14:11.816Z,13.80
2018-04-04T01:16:40.201Z,13.70
2018-04-04T01:19:08.610Z,13.80
2018-04-04T01:21:37.786Z,13.70
2018-04-04T01:24:06.174Z,13.70
2018-04-04T01:26:34.678Z,13.70
2018-04-04T01:29:03.822Z,13.80
2018-04-04T01:31:32.511Z,13.70
2018-04-04T01:34:00.890Z,13.80
2018-04-04T01:36:29.273Z,13.70
2018-04-04T01:38:57.687Z,13.70
2018-04-04T01:41:26.838Z,13.60
2018-04-04T01:43:55.247Z,13.60
2018-04-04T01:46:23.636Z,13.60
2018-04-04T01:48:53.191Z,13.60
2018-04-04T01:51:22.675Z,13.60
2018-04-04T01:53:51.095Z,13.60
2018-04-04T01:56:19.565Z,13.60
2018-04-04T01:58:47.954Z,13.60
2018-04-04T02:01:16.360Z,13.60
2018-04-04T02:03:45.356Z,13.60
2018-04-04T02:06:14.540Z,13.50
2018-04-04T02:08:43.392Z,13.50
2018-04-04T02:11:12.165Z,13.50
2018-04-04T02:13:41.816Z,13.40
2018-04-04T02:16:10.815Z,13.40
2018-04-04T02:18:39.940Z,13.40
2018-04-04T02:21:09.639Z,13.40
2018-04-04T02:23:39.336Z,13.40
2018-04-04T02:26:09.789Z,13.40
2018-04-04T02:28:38.957Z,13.30
2018-04-04T02:31:07.375Z,13.30
2018-04-04T02:33:35.787Z,13.30
2018-04-04T02:36:04.199Z,13.20
2018-04-04T02:38:32.601Z,13.20
2018-04-04T02:41:01.806Z,13.20
2018-04-04T02:43:30.185Z,13.10
2018-04-04T02:45:58.583Z,13.10
2018-04-04T02:48:26.998Z,13.10
2018-04-04T02:50:55.416Z,13.10
2018-04-04T02:53:24.603Z,13.10
2018-04-04T02:55:53.754Z,13.00
2018-04-04T02:58:22.155Z,13.00
2018-04-04T03:00:50.553Z,13.00
2018-04-04T03:03:19.704Z,13.00
2018-04-04T03:05:48.290Z,13.00
2018-04-04T03:08:16.673Z,13.00
2018-04-04T03:10:45.058Z,12.90
2018-04-04T03:13:13.517Z,12.90
2018-04-04T03:15:41.891Z,12.80
2018-04-04T03:18:10.693Z,12.80
2018-04-04T03:20:39.075Z,12.70
2018-04-04T03:23:07.454Z,12.70
2018-04-04T03:25:35.855Z,12.70
2018-04-04T03:28:04.237Z,12.60
2018-04-04T03:30:32.667Z,12.50
2018-04-04T03:33:01.045Z,12.50
2018-04-04T03:35:29.422Z,12.40
2018-04-04T03:37:57.872Z,12.30
2018-04-04T03:40:27.022Z,12.30
2018-04-04T03:42:55.605Z,12.30
2018-04-04T03:45:23.984Z,12.30
2018-04-04T03:47:52.370Z,12.40
2018-04-04T03:50:20.765Z,12.40
2018-04-04T03:52:49.914Z,12.40
2018-04-04T03:55:18.658Z,12.30
2018-04-04T03:57:47.035Z,12.40
2018-04-04T04:00:15.410Z,12.40
2018-04-04T04:02:43.869Z,12.30
2018-04-04T04:05:12.284Z,12.30
2018-04-04T04:07:41.654Z,12.30
2018-04-04T04:10:10.073Z,12.30
2018-04-04T04:12:39.205Z,12.30
2018-04-04T04:15:07.622Z,12.30
2018-04-04T04:17:36.525Z,12.30
2018-04-04T04:20:04.930Z,12.20
2018-04-04T04:22:33.332Z,12.20
2018-04-04T04:25:02.027Z,12.10
2018-04-04T04:27:30.418Z,12.00
2018-04-04T04:29:58.802Z,12.00
2018-04-04T04:32:27.207Z,12.10
2018-04-04T04:34:56.350Z,12.10
2018-04-04T04:37:24.761Z,12.10
2018-04-04T04:39:53.152Z,12.10
2018-04-04T04:42:21.739Z,12.00
2018-04-04T04:44:50.152Z,12.00
2018-04-04T04:47:18.931Z,11.90
2018-04-04T04:49:47.348Z,11.80
2018-04-04T04:52:15.786Z,11.80
2018-04-04T04:54:44.251Z,11.60
2018-04-04T04:57:13.403Z,11.50
2018-04-04T04:59:41.988Z,11.50
2018-04-04T05:02:10.362Z,11.50
2018-04-04T05:04:38.739Z,11.50
2018-04-04T05:07:07.180Z,11.50
2018-04-04T05:09:36.340Z,11.50
2018-04-04T05:12:04.759Z,11.40
2018-04-04T05:14:33.147Z,11.40
2018-04-04T05:17:01.587Z,11.30
2018-04-04T05:19:29.980Z,11.30
2018-04-04T05:21:59.126Z,11.30
2018-04-04T05:24:27.537Z,11.30
2018-04-04T05:26:55.922Z,11.30
2018-04-04T05:29:24.323Z,11.40
2018-04-04T05:31:53.497Z,11.50
2018-04-04T05:34:21.949Z,11.40
2018-04-04T05:36:50.330Z,11.60
2018-04-04T05:39:18.725Z,11.70
2018-04-04T05:41:47.131Z,11.80
2018-04-04T05:44:16.284Z,12.10
2018-04-04T05:46:44.695Z,12.00
2018-04-04T05:49:13.081Z,12.10
2018-04-04T05:51:42.279Z,12.30
2018-04-04T05:54:11.437Z,12.40
2018-04-04T05:56:39.823Z,12.40
2018-04-04T05:59:08.242Z,12.40
2018-04-04T06:01:37.403Z,12.50
2018-04-04T06:04:05.836Z,12.50
2018-04-04T06:06:34.225Z,12.70
2018-04-04T06:09:02.635Z,12.70
2018-04-04T06:11:31.018Z,12.70
2018-04-04T06:13:59.414Z,12.80
2018-04-04T06:16:27.848Z,12.90
2018-04-04T06:18:56.218Z,13.00
2018-04-04T06:21:24.623Z,13.10
2018-04-04T06:23:53.014Z,13.10
2018-04-04T06:26:21.779Z,13.20
2018-04-04T06:28:50.172Z,13.30
2018-04-04T06:31:18.550Z,13.50
2018-04-04T06:33:46.963Z,13.70
2018-04-04T06:36:16.124Z,14.10
2018-04-04T06:38:44.544Z,14.10
2018-04-04T06:41:13.706Z,14.60
2018-04-04T06:43:42.117Z,14.60
2018-04-04T06:46:11.316Z,14.80
2018-04-04T06:48:40.488Z,14.90
2018-04-04T06:51:08.944Z,14.80
2018-04-04T06:53:37.352Z,15.00
2018-04-04T06:56:05.774Z,15.20
2018-04-04T06:58:34.158Z,15.30
2018-04-04T07:01:02.560Z,15.60
2018-04-04T07:03:30.959Z,15.70
2018-04-04T07:05:59.801Z,15.90
2018-04-04T07:08:28.180Z,16.10
2018-04-04T07:10:56.563Z,16.30
2018-04-04T07:13:24.987Z,16.50
2018-04-04T07:15:53.367Z,16.70
2018-04-04T07:18:21.774Z,16.90
2018-04-04T07:20:50.922Z,17.50
2018-04-04T07:23:19.499Z,17.50
2018-04-04T07:25:47.889Z,17.80
2018-04-04T07:28:16.274Z,18.00
2018-04-04T07:30:44.695Z,18.20
2018-04-04T07:33:13.086Z,18.30
2018-04-04T07:35:41.522Z,18.50
2018-04-04T07:38:09.978Z,18.70
2018-04-04T07:40:38.872Z,18.80
2018-04-04T07:43:07.279Z,19.10
2018-04-04T07:45:35.663Z,19.40
2018-04-04T07:48:04.078Z,19.70
2018-04-04T07:50:32.464Z,20.10
2018-04-04T07:53:00.926Z,20.50
2018-04-04T07:55:29.306Z,21.10
2018-04-04T07:57:57.874Z,21.90
2018-04-04T08:00:27.028Z,23.60
2018-04-04T08:02:55.403Z,23.50
2018-04-04T08:05:23.811Z,24.30
2018-04-04T08:07:52.468Z,25.20
2018-04-04T08:10:20.874Z,25.90
2018-04-04T08:12:50.341Z,26.30
2018-04-04T08:15:18.771Z,26.20
2018-04-04T08:17:49.111Z,25.10
2018-04-04T08:20:17.506Z,25.10
2018-04-04T08:22:46.438Z,24.80
2018-04-04T08:25:15.015Z,24.70
2018-04-04T08:27:43.792Z,24.70
2018-04-04T08:30:12.991Z,24.80
2018-04-04T08:32:43.222Z,25.10
2018-04-04T08:35:16.717Z,25.00
2018-04-04T08:37:46.211Z,25.40
2018-04-04T08:40:14.638Z,25.30
2018-04-04T08:42:43.779Z,25.60
2018-04-04T08:45:12.782Z,25.60
2018-04-04T08:47:42.295Z,25.80
2018-04-04T08:50:12.805Z,25.80
2018-04-04T08:52:42.126Z,25.90
2018-04-04T08:55:12.239Z,25.90
2018-04-04T08:57:41.759Z,26.10
2018-04-04T09:00:10.431Z,26.30
2018-04-04T09:02:40.439Z,26.90
2018-04-04T09:05:10.376Z,26.90
2018-04-04T09:07:39.012Z,27.10
2018-04-04T09:10:09.442Z,27.40
2018-04-04T09:12:39.488Z,27.50
2018-04-04T09:15:08.686Z,27.80
2018-04-04T09:17:38.704Z,28.60
2018-04-04T09:20:08.432Z,28.90
2018-04-04T09:22:37.924Z,29.10
2018-04-04T09:25:08.279Z,29.10
2018-04-04T09:27:36.916Z,29.50
2018-04-04T09:30:05.817Z,29.90
2018-04-04T09:32:35.318Z,30.20
2018-04-04T09:35:03.906Z,30.20
2018-04-04T09:37:32.591Z,30.40
2018-04-04T09:40:01.172Z,30.20
2018-04-04T09:42:30.690Z,30.10
2018-04-04T09:44:59.977Z,30.10
2018-04-04T09:47:29.631Z,30.10
2018-04-04T09:49:59.078Z,29.50
2018-04-04T09:52:27.647Z,29.50
2018-04-04T09:54:56.110Z,29.50
2018-04-04T09:57:24.822Z,29.80
2018-04-04T09:59:53.244Z,29.90
2018-04-04T10:02:25.589Z,29.80
2018-04-04T10:04:53.969Z,30.10
2018-04-04T10:07:22.370Z,30.00
2018-04-04T10:09:50.825Z,29.70
2018-04-04T10:12:19.203Z,29.40
2018-04-04T10:14:47.611Z,29.40
2018-04-04T10:17:15.990Z,29.60
2018-04-04T10:19:45.357Z,29.90
2018-04-04T10:22:13.739Z,29.80
2018-04-04T10:24:42.123Z,29.50
2018-04-04T10:27:10.526Z,29.10
2018-04-04T10:29:38.914Z,28.80
2018-04-04T10:32:07.321Z,28.90
2018-04-04T10:34:35.701Z,28.80
2018-04-04T10:37:04.305Z,28.30
2018-04-04T10:39:32.677Z,28.10
2018-04-04T10:42:01.067Z,27.90
2018-04-04T10:44:29.467Z,28.40
2018-04-04T10:46:57.846Z,28.20
2018-04-04T10:49:26.251Z,27.80
2018-04-04T10:51:55.398Z,27.00
2018-04-04T10:54:23.987Z,26.90
2018-04-04T10:56:52.362Z,27.10
2018-04-04T10:59:20.845Z,27.70
2018-04-04T11:01:49.256Z,27.70
2018-04-04T11:04:17.643Z,28.20
2018-04-04T11:06:46.817Z,28.90
2018-04-04T11:09:15.218Z,28.90
2018-04-04T11:11:43.769Z,28.70
2018-04-04T11:14:12.156Z,28.80
2018-04-04T11:16:40.542Z,29.10
2018-04-04T11:19:08.979Z,29.50
2018-04-04T11:21:37.354Z,30.00
2018-04-04T11:24:05.753Z,30.10
2018-04-04T11:26:34.892Z,30.30
2018-04-04T11:29:06.333Z,29.10
2018-04-04T11:31:34.807Z,29.10
2018-04-04T11:34:03.186Z,28.90
2018-04-04T11:36:31.600Z,28.70
2018-04-04T11:38:59.979Z,28.70
2018-04-04T11:41:28.374Z,28.60
2018-04-04T11:43:56.797Z,28.90
2018-04-04T11:46:25.356Z,29.00
2018-04-04T11:48:53.740Z,29.00
2018-04-04T11:51:22.119Z,29.20
2018-04-04T11:53:50.529Z,29.70
2018-04-04T11:56:18.907Z,30.10
2018-04-04T11:58:49.248Z,30.50
2018-04-04T12:01:17.698Z,30.90
2018-04-04T12:03:46.325Z,31.10
2018-04-04T12:06:14.699Z,31.60
2018-04-04T12:08:43.884Z,31.50
2018-04-04T12:11:13.085Z,31.60
2018-04-04T12:13:42.238Z,31.70
2018-04-04T12:16:10.651Z,31.60
2018-04-04T12:18:39.046Z,31.70
2018-04-04T12:21:07.667Z,31.90
2018-04-04T12:23:36.804Z,32.10
2018-04-04T12:26:05.862Z,32.50
2018-04-04T12:28:35.021Z,32.50
2018-04-04T12:31:04.308Z,31.80
2018-04-04T12:33:33.781Z,31.60
2018-04-04T12:36:02.304Z,31.90
2018-04-04T12:38:32.744Z,32.20
2018-04-04T12:41:01.129Z,32.10
2018-04-04T12:43:29.511Z,32.30
2018-04-04T12:45:57.911Z,32.30
2018-04-04T12:48:26.290Z,32.70
2018-04-04T12:50:54.862Z,32.00
2018-04-04T13:03:29.254Z,31.10
2018-04-04T13:05:57.896Z,30.70
2018-04-04T13:08:33.224Z,31.30
2018-04-04T13:11:04.651Z,31.20
2018-04-04T13:13:35.826Z,31.70
2018-04-04T13:16:05.889Z,31.70
2018-04-04T13:18:35.890Z,31.50
2018-04-04T13:21:06.048Z,31.00
2018-04-04T13:23:34.486Z,31.00
2018-04-04T13:26:02.862Z,31.20
2018-04-04T13:28:31.284Z,31.70
2018-04-04T13:30:59.678Z,33.00
2018-04-04T13:33:28.327Z,35.30
2018-04-04T13:35:56.739Z,37.00
2018-04-04T13:38:25.123Z,37.90
2018-04-04T13:40:53.493Z,37.20
2018-04-04T13:43:21.922Z,37.10
2018-04-04T13:45:50.829Z,37.00
2018-04-04T13:48:19.211Z,37.00
2018-04-04T13:50:47.955Z,37.80
2018-04-04T13:53:16.306Z,39.60
2018-04-04T13:55:44.689Z,38.70
2018-04-04T13:58:13.175Z,36.90
2018-04-04T14:00:42.322Z,37.90
2018-04-04T14:03:10.689Z,37.90
2018-04-04T14:05:39.136Z,38.50
2018-04-04T14:08:08.300Z,36.50
2018-04-04T14:10:36.721Z,36.50
2018-04-04T14:13:05.915Z,34.90
2018-04-04T14:15:35.161Z,33.60
2018-04-04T14:18:03.559Z,33.50
2018-04-04T14:20:31.981Z,32.20
2018-04-04T14:23:00.359Z,30.80
2018-04-04T14:25:28.744Z,30.10
2018-04-04T14:27:57.199Z,29.50
2018-04-04T14:30:26.556Z,28.20
2018-04-04T14:32:54.949Z,28.10
2018-04-04T14:35:23.377Z,27.80
2018-04-04T14:37:51.759Z,27.50
2018-04-04T14:40:20.154Z,27.20
2018-04-04T14:42:48.567Z,26.80
2018-04-04T14:45:16.972Z,26.50
2018-04-04T14:47:45.379Z,26.30
2018-04-04T14:50:13.784Z,26.20
2018-04-04T14:52:42.211Z,26.00
2018-04-04T14:55:11.393Z,26.00
2018-04-04T14:57:39.786Z,26.00
2018-04-04T15:00:09.151Z,25.50
2018-04-04T15:02:37.583Z,25.40
2018-04-04T15:05:06.640Z,25.10
2018-04-04T15:07:35.860Z,24.20
2018-04-04T15:10:05.315Z,23.80
2018-04-04T15:12:33.766Z,23.80
2018-04-04T15:15:02.258Z,23.60
2018-04-04T15:17:32.442Z,23.40
2018-04-04T15:20:02.598Z,23.20
2018-04-04T15:22:32.944Z,23.10
2018-04-04T15:25:01.385Z,22.80
2018-04-04T15:27:30.837Z,22.60
2018-04-04T15:29:59.230Z,22.50
2018-04-04T15:32:27.611Z,22.40
2018-04-04T15:34:56.038Z,22.40
2018-04-04T15:37:24.418Z,22.30
2018-04-04T15:39:52.833Z,22.30
2018-04-04T15:42:21.265Z,22.20
2018-04-04T15:44:50.868Z,22.20
2018-04-04T15:47:20.016Z,22.20
2018-04-04T15:49:48.394Z,22.10
2018-04-04T15:52:16.844Z,22.10
2018-04-04T15:54:45.226Z,22.10
2018-04-04T15:57:13.631Z,22.00
2018-04-04T15:59:42.505Z,22.00
2018-04-04T16:02:16.762Z,21.90
2018-04-04T16:04:46.227Z,21.60
2018-04-04T16:07:14.758Z,21.50
2018-04-04T16:09:43.926Z,21.20
2018-04-04T16:12:12.332Z,21.20
2018-04-04T16:14:41.504Z,20.80
2018-04-04T16:17:09.912Z,20.80
2018-04-04T16:19:39.379Z,20.20
2018-04-04T16:22:08.578Z,20.00
2018-04-04T16:24:36.964Z,19.90
2018-04-04T16:27:06.134Z,19.80
2018-04-04T16:29:34.903Z,19.80
2018-04-04T16:32:04.065Z,19.80
2018-04-04T16:34:34.926Z,19.80
2018-04-04T16:37:03.557Z,19.80
2018-04-04T16:39:31.955Z,19.60
2018-04-04T16:42:00.342Z,19.20
2018-04-04T16:44:28.794Z,18.90
2018-04-04T16:46:57.195Z,18.60
2018-04-04T16:49:25.688Z,18.30
2018-04-04T16:51:54.126Z,18.10
2018-04-04T16:54:22.534Z,17.80
2018-04-04T16:56:50.918Z,17.50
2018-04-04T16:59:20.109Z,17.00
2018-04-04T17:01:48.527Z,17.00
2018-04-04T17:04:16.915Z,16.80
2018-04-04T17:06:45.354Z,16.60
2018-04-04T17:09:13.738Z,16.40
2018-04-04T17:11:43.394Z,16.10
2018-04-04T17:14:11.777Z,16.00
2018-04-04T17:16:40.187Z,15.80
2018-04-04T17:19:08.589Z,15.60
2018-04-04T17:21:37.733Z,15.40
2018-04-04T17:24:06.168Z,15.40
2018-04-04T17:26:35.516Z,15.20
2018-04-04T17:29:05.064Z,15.10
2018-04-04T17:31:34.410Z,15.00
2018-04-04T17:34:02.804Z,15.00
2018-04-04T17:36:31.272Z,14.90
2018-04-04T17:38:59.735Z,14.90
2018-04-04T17:41:28.153Z,14.80
2018-04-04T17:43:57.365Z,14.60
2018-04-04T17:46:25.902Z,14.50
2018-04-04T17:48:54.302Z,14.50
2018-04-04T17:51:22.801Z,14.40
2018-04-04T17:53:51.231Z,14.40
2018-04-04T17:56:19.662Z,14.30
2018-04-04T17:58:48.071Z,14.20
2018-04-04T18:01:17.274Z,14.00
2018-04-04T18:03:45.927Z,14.00
2018-04-04T18:06:14.315Z,13.90
2018-04-04T18:08:42.699Z,13.70
2018-04-04T18:11:12.119Z,13.50
2018-04-04T18:13:40.531Z,13.50
2018-04-04T18:16:08.955Z,13.40
2018-04-04T18:18:38.112Z,13.40
2018-04-04T18:21:07.399Z,13.40
2018-04-04T18:23:35.941Z,13.40
2018-04-04T18:26:05.160Z,13.20
2018-04-04T18:28:33.564Z,13.20
2018-04-04T18:31:01.943Z,13.20
2018-04-04T18:33:30.419Z,13.10
2018-04-04T18:35:58.872Z,13.10
2018-04-04T18:38:30.157Z,13.00
2018-04-04T18:40:59.052Z,12.90
2018-04-04T18:43:27.473Z,12.90
2018-04-04T18:45:56.642Z,12.80
2018-04-04T18:48:25.019Z,12.80
2018-04-04T18:50:53.455Z,12.80
2018-04-04T18:53:22.296Z,12.70
2018-04-04T18:55:51.366Z,12.70
2018-04-04T18:58:20.577Z,12.60
2018-04-04T19:00:51.466Z,12.60
2018-04-04T19:03:20.590Z,12.50
2018-04-04T19:05:50.333Z,12.40
2018-04-04T19:08:19.304Z,12.40
2018-04-04T19:10:49.323Z,12.40
2018-04-04T19:13:18.575Z,12.40
2018-04-04T19:15:47.253Z,12.40
2018-04-04T19:18:17.998Z,12.40
2018-04-04T19:20:47.013Z,12.40
2018-04-04T19:23:15.854Z,12.40
2018-04-04T19:25:44.319Z,12.30
2018-04-04T19:28:12.884Z,12.30
2018-04-04T19:30:41.316Z,12.30
2018-04-04T19:33:10.868Z,12.40
2018-04-04T19:35:39.341Z,12.40
2018-04-04T19:38:08.240Z,12.30
2018-04-04T19:40:37.950Z,12.20
2018-04-04T19:43:06.388Z,12.10
2018-04-04T19:45:35.445Z,12.00
2018-04-04T19:48:04.841Z,11.90
2018-04-04T19:50:33.308Z,11.90
2018-04-04T19:53:02.554Z,11.90
2018-04-04T19:55:31.954Z,11.90
2018-04-04T19:58:01.287Z,11.90
2018-04-04T20:00:29.792Z,11.80
2018-04-04T20:02:59.722Z,11.70
2018-04-04T20:05:28.762Z,11.70
2018-04-04T20:07:58.363Z,11.70
2018-04-04T20:10:26.961Z,11.70
2018-04-04T20:12:55.346Z,11.60
2018-04-04T20:15:25.046Z,11.60
2018-04-04T20:17:53.455Z,11.60
2018-04-04T20:20:24.561Z,11.60
2018-04-04T20:22:53.376Z,11.70
2018-04-04T20:25:22.427Z,11.80
2018-04-04T20:27:50.861Z,11.90
2018-04-04T20:30:19.650Z,12.00
2018-04-04T20:32:49.448Z,12.00
2018-04-04T20:35:19.684Z,12.00
2018-04-04T20:37:48.723Z,12.10
2018-04-04T20:40:18.447Z,12.10
2018-04-04T20:42:47.698Z,12.20
2018-04-04T20:45:16.217Z,12.10
2018-04-04T20:47:45.655Z,12.20
2018-04-04T20:50:14.154Z,12.10
2018-04-04T20:52:42.621Z,12.20
2018-04-04T20:55:11.099Z,12.20
2018-04-04T20:57:39.516Z,12.30
2018-04-04T21:00:08.684Z,12.30
2018-04-04T21:02:37.240Z,12.20
2018-04-04T21:05:06.363Z,12.40
2018-04-04T21:07:35.465Z,12.30
2018-04-04T21:10:03.940Z,12.30
2018-04-04T21:12:32.359Z,12.30
2018-04-04T21:15:00.867Z,12.30
2018-04-04T21:17:29.272Z,12.30
2018-04-04T21:19:57.763Z,12.30
2018-04-04T21:22:26.139Z,12.30
2018-04-04T21:24:58.064Z,12.20
2018-04-04T21:27:27.265Z,12.20
2018-04-04T21:29:55.879Z,12.20
2018-04-04T21:32:24.287Z,12.10
2018-04-04T21:34:52.686Z,12.00
2018-04-04T21:37:21.859Z,12.10
2018-04-04T21:39:50.253Z,12.10
2018-04-04T21:42:18.655Z,12.10
2018-04-04T21:44:47.122Z,12.00
2018-04-04T21:47:16.567Z,12.00
2018-04-04T21:49:45.070Z,12.00
2018-04-04T21:52:13.447Z,12.00
2018-04-04T21:54:41.862Z,11.90
2018-04-04T21:57:11.018Z,11.90
2018-04-04T21:59:39.429Z,11.90
2018-04-04T22:02:07.848Z,11.90
2018-04-04T22:04:36.565Z,11.90
2018-04-04T22:07:04.951Z,12.00
2018-04-04T22:09:33.325Z,11.80
2018-04-04T22:12:01.832Z,11.50
2018-04-04T22:14:30.330Z,11.10
2018-04-04T22:16:59.505Z,10.90
2018-04-04T22:19:27.889Z,10.80
2018-04-04T22:21:57.358Z,10.90
2018-04-04T22:24:25.742Z,10.90
2018-04-04T22:26:54.123Z,10.90
2018-04-04T22:29:22.696Z,11.00
2018-04-04T22:31:51.345Z,11.00
2018-04-04T22:34:19.966Z,11.00
2018-04-04T22:36:48.549Z,11.00
2018-04-04T22:39:17.234Z,11.10
2018-04-04T22:41:45.927Z,11.10
2018-04-04T22:44:16.168Z,11.20
2018-04-04T22:46:44.936Z,11.20
2018-04-04T22:49:15.301Z,11.30
2018-04-04T22:51:43.845Z,11.20
2018-04-04T22:54:13.225Z,11.20
2018-04-04T22:56:43.606Z,11.10
2018-04-04T22:59:12.830Z,11.20
2018-04-04T23:01:42.885Z,11.20
2018-04-04T23:04:12.719Z,11.20
2018-04-04T23:06:42.671Z,11.20
2018-04-04T23:09:11.154Z,11.20
2018-04-04T23:11:51.161Z,11.30
2018-04-04T23:14:40.437Z,11.30
2018-04-04T23:17:08.987Z,11.30
2018-04-04T23:19:42.112Z,11.30
2018-04-04T23:22:21.152Z,11.30
2018-04-04T23:24:52.638Z,11.10
2018-04-04T23:27:26.275Z,11.10
2018-04-04T23:29:54.656Z,11.10
2018-04-04T23:32:24.306Z,11.00
2018-04-04T23:34:52.702Z,11.00
2018-04-04T23:37:21.083Z,11.00
2018-04-04T23:39:51.555Z,10.90
2018-04-04T23:42:19.934Z,10.80
2018-04-04T23:44:52.843Z,10.70
2018-04-04T23:47:23.417Z,10.60
2018-04-04T23:49:53.640Z,10.60
2018-04-04T23:52:41.042Z,10.60
2018-04-04T23:55:13.250Z,10.50
2018-04-04T23:57:41.649Z,10.50
